Sheffield, Ohio
Current Conditions -  °F | °C
As of 4:53 AM on Thursday 18 Dec 2014 (Local Time) from KLPR Reporting Station
Overcast Overcast  
Wind Chill: 19°   Ceiling: 2500
Heat Index: 28°   Visibility: 10mi
Dew Point: 21°   Wind: 10mph
Humidity: 75%   Direction: 280°W
Pressure: 30.2"   Gusts: NA
Location:  41.4372°N, 82.1333°W
Report Text: KLPR 180953Z AUTO 28009KT 10SM OVC025 M02/M06 A3020 RMK AO2 SLP236 T10221061 TSNO
Loading
Personal Weather Stations






























Interactive Weather Map New forecast layout! Learn more

10-Day Weather Forecast

Advertisements
Track Severe Weather on mobile